createdAt,value
2024-03-10T00:00:06.403Z,22.07
2024-03-10T00:00:38.422Z,22.13
2024-03-10T00:01:10.471Z,21.60
2024-03-10T00:01:42.569Z,21.93
2024-03-10T00:02:14.721Z,21.20
2024-03-10T00:02:47.081Z,21.80
2024-03-10T00:03:19.438Z,22.47
2024-03-10T00:03:51.686Z,20.37
2024-03-10T00:04:23.828Z,21.07
2024-03-10T00:04:55.886Z,23.03
2024-03-10T00:05:28.024Z,21.60
2024-03-10T00:06:00.064Z,20.93
2024-03-10T00:06:32.148Z,21.27
2024-03-10T00:07:04.564Z,21.20
2024-03-10T00:07:36.689Z,20.37
2024-03-10T00:08:08.794Z,20.90
2024-03-10T00:08:40.903Z,21.70
2024-03-10T00:09:12.915Z,21.60
2024-03-10T00:09:45.215Z,21.07
2024-03-10T00:10:17.293Z,21.80
2024-03-10T00:10:50.766Z,22.10
2024-03-10T00:11:22.904Z,22.00
2024-03-10T00:11:55.152Z,22.83
2024-03-10T00:12:27.193Z,21.97
2024-03-10T00:12:59.318Z,22.03
2024-03-10T00:13:31.365Z,21.63
2024-03-10T00:14:03.478Z,21.20
2024-03-10T00:14:35.590Z,21.03
2024-03-10T00:15:08.813Z,21.97
2024-03-10T00:15:40.834Z,21.63
2024-03-10T00:16:12.868Z,21.20
2024-03-10T00:16:44.938Z,21.60
2024-03-10T00:17:17.067Z,22.23
2024-03-10T00:17:49.322Z,22.73
2024-03-10T00:18:21.589Z,22.40
2024-03-10T00:18:53.663Z,21.00
2024-03-10T00:19:25.719Z,21.33
2024-03-10T00:19:57.961Z,21.77
2024-03-10T00:20:30.105Z,21.47
2024-03-10T00:21:02.408Z,20.97
2024-03-10T00:21:34.642Z,21.60
2024-03-10T00:22:06.655Z,21.13
2024-03-10T00:22:38.694Z,21.57
2024-03-10T00:23:10.708Z,21.73
2024-03-10T00:23:43.112Z,21.00
2024-03-10T00:24:15.152Z,22.40
2024-03-10T00:24:47.601Z,22.20
2024-03-10T00:25:19.969Z,21.93
2024-03-10T00:25:53.377Z,21.47
2024-03-10T00:26:25.467Z,21.20
2024-03-10T00:26:57.566Z,20.97
2024-03-10T00:27:29.599Z,22.97
2024-03-10T00:28:01.649Z,22.40
2024-03-10T00:28:33.888Z,22.60
2024-03-10T00:29:06.764Z,22.83
2024-03-10T00:29:39.387Z,22.57
2024-03-10T00:30:11.668Z,22.63
2024-03-10T00:30:43.760Z,21.97
2024-03-10T00:31:16.125Z,22.53
2024-03-10T00:31:48.630Z,22.30
2024-03-10T00:32:20.706Z,22.73
2024-03-10T00:32:52.902Z,21.97
2024-03-10T00:33:25.057Z,22.57
2024-03-10T00:33:57.170Z,23.27
2024-03-10T00:34:29.625Z,21.70
2024-03-10T00:35:02.011Z,22.67
2024-03-10T00:35:34.399Z,22.23
2024-03-10T00:36:07.096Z,22.10
2024-03-10T00:36:39.136Z,22.60
2024-03-10T00:37:11.338Z,22.63
2024-03-10T00:37:43.385Z,23.07
2024-03-10T00:38:15.545Z,23.47
2024-03-10T00:38:47.758Z,21.93
2024-03-10T00:39:19.759Z,23.63
2024-03-10T00:39:51.982Z,23.53
2024-03-10T00:40:24.049Z,22.67
2024-03-10T00:40:57.513Z,21.70
2024-03-10T00:41:29.595Z,22.40
2024-03-10T00:42:01.631Z,23.07
2024-03-10T00:42:33.746Z,22.57
2024-03-10T00:43:05.766Z,22.83
2024-03-10T00:43:37.776Z,23.00
2024-03-10T00:44:09.868Z,22.47
2024-03-10T00:44:41.863Z,21.90
2024-03-10T00:45:13.913Z,22.10
2024-03-10T00:45:45.900Z,22.37
2024-03-10T00:46:18.030Z,22.33
2024-03-10T00:46:50.125Z,21.53
2024-03-10T00:47:22.369Z,20.93
2024-03-10T00:47:54.664Z,22.33
2024-03-10T00:48:26.778Z,22.97
2024-03-10T00:48:58.800Z,21.73
2024-03-10T00:49:30.824Z,21.03
2024-03-10T00:50:02.962Z,20.97
2024-03-10T00:50:35.356Z,22.03
2024-03-10T00:51:07.459Z,21.87
2024-03-10T00:51:39.547Z,23.13
2024-03-10T00:52:11.686Z,22.47
2024-03-10T00:52:43.693Z,21.43
2024-03-10T00:53:15.845Z,21.90
2024-03-10T00:53:47.958Z,21.93
2024-03-10T00:54:20.051Z,22.47
2024-03-10T00:54:52.109Z,22.83
2024-03-10T00:55:24.160Z,22.43
2024-03-10T00:55:57.663Z,23.03
2024-03-10T00:56:29.943Z,22.80
2024-03-10T00:57:02.043Z,21.63
2024-03-10T00:57:34.191Z,22.13
2024-03-10T00:58:06.710Z,22.67
2024-03-10T00:58:38.777Z,22.53
2024-03-10T00:59:11.034Z,22.53
2024-03-10T00:59:43.183Z,21.77
2024-03-10T01:00:16.052Z,22.47
2024-03-10T01:00:48.092Z,22.53
2024-03-10T01:01:20.314Z,21.63
2024-03-10T01:01:52.431Z,22.07
2024-03-10T01:02:25.273Z,22.33
2024-03-10T01:02:57.325Z,21.93
2024-03-10T01:03:29.476Z,21.97
2024-03-10T01:04:01.627Z,21.40
2024-03-10T01:04:33.663Z,22.83
2024-03-10T01:05:07.013Z,22.03
2024-03-10T01:05:39.073Z,22.70
2024-03-10T01:06:11.189Z,22.57
2024-03-10T01:06:45.556Z,23.10
2024-03-10T01:07:20.543Z,22.57
2024-03-10T01:07:52.731Z,21.83
2024-03-10T01:08:24.846Z,23.03
2024-03-10T01:08:58.281Z,22.77
2024-03-10T01:09:30.489Z,23.37
2024-03-10T01:10:02.798Z,22.63
2024-03-10T01:10:34.829Z,21.97
2024-03-10T01:11:08.482Z,21.87
2024-03-10T01:11:41.308Z,21.80
2024-03-10T01:12:13.795Z,22.73
2024-03-10T01:12:45.824Z,21.73
2024-03-10T01:13:17.829Z,22.27
2024-03-10T01:13:50.000Z,22.00
2024-03-10T01:14:22.393Z,21.70
2024-03-10T01:14:54.732Z,22.67
2024-03-10T01:15:26.854Z,23.63
2024-03-10T01:15:58.965Z,23.10
2024-03-10T01:16:31.059Z,22.57
2024-03-10T01:17:03.383Z,21.93
2024-03-10T01:17:36.050Z,22.13
2024-03-10T01:18:08.320Z,22.43
2024-03-10T01:18:40.366Z,22.43
2024-03-10T01:19:12.425Z,23.33
2024-03-10T01:19:44.557Z,22.90
2024-03-10T01:20:16.872Z,23.27
2024-03-10T01:20:49.336Z,23.23
2024-03-10T01:21:21.399Z,22.90
2024-03-10T01:21:53.450Z,23.40
2024-03-10T01:22:25.695Z,22.90
2024-03-10T01:22:58.000Z,23.20
2024-03-10T01:23:30.039Z,22.63
2024-03-10T01:24:03.823Z,23.23
2024-03-10T01:24:37.817Z,23.33
2024-03-10T01:25:10.326Z,23.13
2024-03-10T01:25:42.574Z,23.10
2024-03-10T01:26:16.371Z,22.10
2024-03-10T01:26:48.476Z,22.07
2024-03-10T01:27:20.520Z,22.30
2024-03-10T01:27:52.532Z,22.43
2024-03-10T01:28:24.691Z,22.30
2024-03-10T01:28:56.794Z,21.63
2024-03-10T01:29:29.204Z,22.87
2024-03-10T01:30:01.312Z,22.50
2024-03-10T01:30:33.320Z,22.57
2024-03-10T01:31:05.417Z,23.30
2024-03-10T01:31:37.495Z,22.73
2024-03-10T01:32:09.573Z,21.67
2024-03-10T01:32:42.030Z,22.83
2024-03-10T01:33:14.099Z,22.40
2024-03-10T01:33:46.337Z,22.33
2024-03-10T01:34:18.751Z,22.43
2024-03-10T01:34:50.789Z,22.90
2024-03-10T01:35:22.931Z,22.37
2024-03-10T01:35:54.997Z,23.33
2024-03-10T01:36:27.050Z,23.13
2024-03-10T01:36:59.111Z,22.90
2024-03-10T01:37:31.302Z,23.30
2024-03-10T01:38:03.641Z,23.63
2024-03-10T01:38:35.767Z,23.07
2024-03-10T01:39:08.194Z,22.50
2024-03-10T01:39:40.276Z,21.93
2024-03-10T01:40:12.521Z,23.23
2024-03-10T01:40:44.724Z,23.17
2024-03-10T01:41:18.135Z,22.97
2024-03-10T01:41:50.192Z,23.57
2024-03-10T01:42:22.216Z,23.00
2024-03-10T01:42:55.393Z,22.93
2024-03-10T01:43:27.388Z,23.37
2024-03-10T01:43:59.426Z,22.97
2024-03-10T01:44:31.496Z,23.33
2024-03-10T01:45:03.812Z,23.27
2024-03-10T01:45:35.769Z,22.73
2024-03-10T01:46:09.586Z,22.83
2024-03-10T01:46:41.958Z,23.37
2024-03-10T01:47:14.202Z,23.30
2024-03-10T01:47:46.598Z,22.57
2024-03-10T01:48:18.826Z,22.33
2024-03-10T01:48:52.630Z,22.10
2024-03-10T01:49:24.815Z,22.30
2024-03-10T01:49:57.000Z,22.57
2024-03-10T01:50:29.454Z,22.70
2024-03-10T01:51:02.270Z,22.70
2024-03-10T01:51:36.462Z,21.67
2024-03-10T01:52:10.049Z,23.07
2024-03-10T01:52:42.428Z,22.37
2024-03-10T01:53:14.713Z,22.97
2024-03-10T01:53:48.164Z,22.63
2024-03-10T01:54:24.964Z,22.80
2024-03-10T01:54:59.112Z,23.63
2024-03-10T01:55:31.403Z,23.83
2024-03-10T01:56:04.754Z,24.43
2024-03-10T01:56:39.827Z,23.57
2024-03-10T01:57:12.397Z,24.07
2024-03-10T01:57:47.556Z,23.23
2024-03-10T01:58:19.914Z,23.60
2024-03-10T01:58:53.848Z,23.90
2024-03-10T01:59:26.738Z,23.63
2024-03-10T01:59:59.130Z,24.00
2024-03-10T02:00:31.545Z,24.70
2024-03-10T02:01:04.521Z,24.50
2024-03-10T02:01:36.722Z,23.63
2024-03-10T02:02:08.961Z,24.40
2024-03-10T02:02:42.299Z,22.83
2024-03-10T02:03:15.148Z,23.80
2024-03-10T02:03:49.226Z,22.70
2024-03-10T02:04:21.827Z,22.37
2024-03-10T02:04:54.312Z,23.67
2024-03-10T02:05:26.590Z,23.67
2024-03-10T02:05:59.237Z,23.57
2024-03-10T02:06:31.540Z,24.50
2024-03-10T02:07:04.101Z,23.47
2024-03-10T02:07:36.278Z,23.60
2024-03-10T02:08:08.319Z,22.63
2024-03-10T02:08:41.582Z,23.77
2024-03-10T02:09:13.888Z,23.70
2024-03-10T02:09:46.329Z,24.73
2024-03-10T02:10:19.086Z,24.77
2024-03-10T02:10:51.776Z,23.57
2024-03-10T02:11:24.087Z,24.00
2024-03-10T02:11:57.924Z,23.50
2024-03-10T02:12:30.171Z,24.10
2024-03-10T02:13:02.181Z,24.00
2024-03-10T02:13:34.581Z,24.23
2024-03-10T02:14:06.642Z,23.77
2024-03-10T02:14:38.704Z,22.43
2024-03-10T02:15:10.821Z,22.70
2024-03-10T02:15:43.163Z,23.03
2024-03-10T02:16:15.406Z,23.23
2024-03-10T02:16:47.486Z,23.40
2024-03-10T02:17:19.555Z,24.00
2024-03-10T02:17:51.793Z,24.33
2024-03-10T02:18:23.857Z,25.10
2024-03-10T02:18:55.966Z,24.17
2024-03-10T02:19:28.337Z,23.47
2024-03-10T02:20:00.439Z,24.23
2024-03-10T02:20:32.509Z,23.17
2024-03-10T02:21:05.661Z,24.03
2024-03-10T02:21:38.225Z,24.10
2024-03-10T02:22:10.276Z,23.30
2024-03-10T02:22:43.636Z,24.27
2024-03-10T02:23:16.408Z,24.70
2024-03-10T02:23:57.286Z,23.83
2024-03-10T02:24:33.897Z,23.63
2024-03-10T02:25:07.016Z,23.80
2024-03-10T02:25:43.431Z,24.37
2024-03-10T02:26:15.784Z,23.60
2024-03-10T02:26:48.280Z,23.87
2024-03-10T02:27:21.813Z,24.57
2024-03-10T02:27:54.602Z,25.00
2024-03-10T02:28:27.713Z,24.43
2024-03-10T02:29:01.438Z,23.47
2024-03-10T02:29:33.685Z,24.13
2024-03-10T02:30:06.924Z,23.60
2024-03-10T02:30:49.113Z,24.37
2024-03-10T02:31:21.141Z,24.67
2024-03-10T02:31:53.907Z,25.93
2024-03-10T02:32:27.090Z,24.40
2024-03-10T02:32:59.843Z,24.27
2024-03-10T02:33:31.874Z,24.00
2024-03-10T02:34:04.522Z,24.67
2024-03-10T02:34:37.917Z,24.63
2024-03-10T02:35:10.026Z,24.63
2024-03-10T02:35:42.045Z,24.80
2024-03-10T02:36:14.128Z,24.83
2024-03-10T02:36:46.178Z,25.80
2024-03-10T02:37:18.648Z,25.00
2024-03-10T02:37:50.754Z,24.63
2024-03-10T02:38:22.927Z,25.17
2024-03-10T02:38:55.116Z,23.73
2024-03-10T02:39:27.220Z,24.53
2024-03-10T02:39:59.319Z,24.60
2024-03-10T02:40:31.472Z,24.43
2024-03-10T02:41:05.157Z,23.40
2024-03-10T02:41:37.254Z,24.17
2024-03-10T02:42:09.332Z,24.23
2024-03-10T02:42:41.411Z,24.23
2024-03-10T02:43:13.486Z,23.17
2024-03-10T02:43:46.281Z,24.30
2024-03-10T02:44:18.447Z,24.17
2024-03-10T02:44:50.623Z,25.57
2024-03-10T02:45:22.641Z,25.07
2024-03-10T02:45:55.134Z,25.77
2024-03-10T02:46:27.180Z,25.03
2024-03-10T02:46:59.220Z,24.37
2024-03-10T02:47:31.407Z,24.43
2024-03-10T02:48:04.006Z,23.87
2024-03-10T02:48:36.046Z,22.53
2024-03-10T02:49:08.081Z,24.10
2024-03-10T02:49:40.661Z,24.23
2024-03-10T02:50:12.750Z,23.73
2024-03-10T02:50:45.366Z,23.53
2024-03-10T02:51:17.470Z,24.80
2024-03-10T02:51:49.497Z,24.10
2024-03-10T02:52:21.694Z,25.03
2024-03-10T02:52:53.751Z,24.00
2024-03-10T02:53:26.166Z,24.57
2024-03-10T02:53:58.459Z,24.43
2024-03-10T02:54:30.528Z,24.73
2024-03-10T02:55:02.887Z,23.90
2024-03-10T02:55:34.942Z,23.27
2024-03-10T02:56:08.866Z,24.73
2024-03-10T02:56:40.880Z,25.33
2024-03-10T02:57:12.975Z,25.73
2024-03-10T02:57:44.991Z,24.03
2024-03-10T02:58:17.005Z,24.13
2024-03-10T02:58:49.142Z,24.50
2024-03-10T02:59:21.251Z,25.50
2024-03-10T02:59:53.228Z,25.57
2024-03-10T03:00:25.258Z,24.90
2024-03-10T03:00:57.262Z,24.00
2024-03-10T03:01:29.361Z,24.60
2024-03-10T03:02:01.549Z,23.70
2024-03-10T03:02:34.672Z,24.50
2024-03-10T03:03:06.744Z,24.80
2024-03-10T03:03:38.825Z,25.57
2024-03-10T03:04:10.850Z,24.33
2024-03-10T03:04:42.877Z,23.90
2024-03-10T03:05:16.334Z,24.73
2024-03-10T03:05:49.303Z,25.93
2024-03-10T03:06:21.431Z,24.23
2024-03-10T03:06:53.772Z,24.00
2024-03-10T03:07:25.742Z,24.10
2024-03-10T03:07:58.805Z,23.80
2024-03-10T03:08:30.930Z,24.10
2024-03-10T03:09:03.027Z,24.33
2024-03-10T03:09:35.029Z,24.17
2024-03-10T03:10:07.676Z,24.47
2024-03-10T03:10:39.877Z,23.57
2024-03-10T03:11:13.273Z,23.63
2024-03-10T03:11:45.350Z,24.03
2024-03-10T03:12:17.657Z,23.27
2024-03-10T03:12:50.028Z,23.03
2024-03-10T03:13:22.084Z,22.63
2024-03-10T03:13:54.231Z,23.17
2024-03-10T03:14:26.389Z,24.90
2024-03-10T03:14:58.498Z,24.87
2024-03-10T03:15:30.856Z,24.70
2024-03-10T03:16:03.206Z,23.57
2024-03-10T03:16:35.284Z,23.00
2024-03-10T03:17:07.912Z,24.20
2024-03-10T03:17:40.073Z,24.33
2024-03-10T03:18:12.192Z,24.23
2024-03-10T03:18:44.372Z,24.13
2024-03-10T03:19:16.466Z,24.87
2024-03-10T03:19:48.510Z,24.00
2024-03-10T03:20:20.873Z,25.07
2024-03-10T03:20:53.002Z,25.43
2024-03-10T03:21:24.998Z,24.83
2024-03-10T03:21:57.063Z,25.03
2024-03-10T03:22:29.087Z,23.50
2024-03-10T03:23:01.123Z,24.90
2024-03-10T03:23:33.204Z,23.67
2024-03-10T03:24:05.700Z,25.03
2024-03-10T03:24:38.833Z,24.80
2024-03-10T03:25:11.181Z,24.00
2024-03-10T03:25:43.222Z,24.43
2024-03-10T03:26:17.218Z,24.40
2024-03-10T03:26:49.239Z,23.47
2024-03-10T03:27:21.327Z,23.20
2024-03-10T03:27:53.450Z,23.93
2024-03-10T03:28:25.475Z,24.17
2024-03-10T03:28:57.499Z,23.17
2024-03-10T03:29:29.592Z,23.90
2024-03-10T03:30:01.570Z,25.10
2024-03-10T03:30:33.596Z,24.83
2024-03-10T03:31:05.733Z,25.27
2024-03-10T03:31:37.780Z,25.80
2024-03-10T03:32:09.781Z,24.87
2024-03-10T03:32:41.857Z,26.33
2024-03-10T03:33:14.013Z,26.43
2024-03-10T03:33:46.084Z,24.43
2024-03-10T03:34:18.655Z,25.27
2024-03-10T03:34:50.681Z,26.23
2024-03-10T03:35:22.925Z,24.77
2024-03-10T03:35:55.013Z,24.93
2024-03-10T03:36:27.273Z,26.33
2024-03-10T03:36:59.337Z,26.73
2024-03-10T03:37:31.447Z,25.70
2024-03-10T03:38:03.814Z,24.53
2024-03-10T03:38:36.555Z,25.17
2024-03-10T03:39:08.758Z,26.03
2024-03-10T03:39:40.846Z,25.73
2024-03-10T03:40:13.480Z,25.97
2024-03-10T03:40:45.554Z,26.07
2024-03-10T03:41:19.226Z,25.70
2024-03-10T03:41:51.342Z,26.63
2024-03-10T03:42:24.293Z,26.60
2024-03-10T03:42:56.365Z,25.73
2024-03-10T03:43:28.422Z,25.80
2024-03-10T03:44:00.520Z,24.87
2024-03-10T03:44:32.596Z,23.33
2024-03-10T03:45:05.116Z,24.87
2024-03-10T03:45:37.385Z,25.70
2024-03-10T03:46:09.450Z,25.27
2024-03-10T03:46:41.531Z,25.83
2024-03-10T03:47:13.557Z,25.37
2024-03-10T03:47:45.700Z,25.63
2024-03-10T03:48:19.788Z,25.30
2024-03-10T03:48:52.155Z,26.17
2024-03-10T03:49:24.157Z,25.43
2024-03-10T03:49:56.145Z,27.67
2024-03-10T03:50:28.212Z,26.30
2024-03-10T03:51:00.340Z,25.93
2024-03-10T03:51:32.401Z,25.90
2024-03-10T03:52:05.732Z,25.97
2024-03-10T03:52:37.764Z,25.90
2024-03-10T03:53:09.775Z,25.07
2024-03-10T03:53:41.822Z,26.23
2024-03-10T03:54:14.680Z,26.63
2024-03-10T03:54:46.746Z,26.43
2024-03-10T03:55:19.183Z,25.67
2024-03-10T03:55:51.269Z,25.97
2024-03-10T03:56:24.854Z,26.20
2024-03-10T03:56:56.976Z,26.13
2024-03-10T03:57:29.009Z,27.17
2024-03-10T03:58:01.052Z,26.13
2024-03-10T03:58:33.196Z,25.87
2024-03-10T03:59:05.472Z,25.70
2024-03-10T03:59:39.377Z,25.63
2024-03-10T04:00:12.470Z,26.40
2024-03-10T04:00:44.617Z,25.47
2024-03-10T04:01:16.746Z,27.10
2024-03-10T04:01:48.904Z,26.10
2024-03-10T04:02:20.925Z,26.63
2024-03-10T04:02:52.974Z,27.27
2024-03-10T04:03:24.992Z,26.87
2024-03-10T04:03:57.018Z,26.70
2024-03-10T04:04:29.005Z,26.07
2024-03-10T04:05:01.067Z,27.30
2024-03-10T04:05:33.216Z,26.77
2024-03-10T04:06:05.606Z,26.57
2024-03-10T04:06:37.611Z,26.50
2024-03-10T04:07:09.688Z,27.43
2024-03-10T04:07:45.227Z,27.83
2024-03-10T04:08:17.259Z,25.07
2024-03-10T04:08:50.046Z,25.30
2024-03-10T04:09:22.106Z,26.13
2024-03-10T04:09:54.081Z,26.23
2024-03-10T04:10:26.096Z,26.03
2024-03-10T04:10:58.221Z,26.00
2024-03-10T04:11:31.870Z,25.67
2024-03-10T04:12:04.668Z,26.87
2024-03-10T04:12:37.060Z,26.40
2024-03-10T04:13:09.425Z,26.67
2024-03-10T04:13:41.434Z,25.57
2024-03-10T04:14:13.542Z,25.43
2024-03-10T04:14:45.597Z,27.07
2024-03-10T04:15:17.683Z,26.87
2024-03-10T04:15:49.860Z,26.97
2024-03-10T04:16:22.002Z,26.70
2024-03-10T04:16:54.101Z,26.03
2024-03-10T04:17:26.199Z,25.97
2024-03-10T04:17:58.418Z,26.70
2024-03-10T04:18:30.603Z,26.27
2024-03-10T04:19:02.694Z,25.20
2024-03-10T04:19:34.780Z,25.77
2024-03-10T04:20:07.688Z,25.90
2024-03-10T04:20:39.715Z,25.37
2024-03-10T04:21:11.794Z,25.37
2024-03-10T04:21:43.965Z,26.17
2024-03-10T04:22:16.011Z,27.30
2024-03-10T04:22:48.037Z,27.10
2024-03-10T04:23:23.976Z,26.63
2024-03-10T04:23:56.884Z,23.53
2024-03-10T04:24:28.942Z,25.40
2024-03-10T04:25:01.076Z,25.67
2024-03-10T04:25:33.334Z,26.47
2024-03-10T04:26:05.454Z,25.67
2024-03-10T04:26:41.602Z,27.10
2024-03-10T04:27:15.032Z,27.27
2024-03-10T04:27:47.028Z,26.80
2024-03-10T04:28:19.123Z,26.77
2024-03-10T04:28:51.213Z,24.13
2024-03-10T04:29:23.296Z,23.27
2024-03-10T04:29:55.285Z,22.87
2024-03-10T04:30:27.263Z,23.73
2024-03-10T04:30:59.491Z,25.80
2024-03-10T04:31:31.556Z,26.23
2024-03-10T04:32:03.994Z,25.97
2024-03-10T04:32:36.072Z,25.17
2024-03-10T04:33:08.145Z,24.73
2024-03-10T04:33:40.216Z,25.40
2024-03-10T04:34:12.570Z,25.93
2024-03-10T04:34:44.690Z,25.10
2024-03-10T04:35:17.091Z,24.17
2024-03-10T04:35:49.154Z,24.67
2024-03-10T04:36:21.229Z,25.60
2024-03-10T04:36:53.356Z,26.27
2024-03-10T04:37:25.415Z,25.90
2024-03-10T04:37:57.554Z,26.07
2024-03-10T04:38:29.778Z,25.87
2024-03-10T04:39:01.927Z,25.77
2024-03-10T04:39:33.990Z,25.87
2024-03-10T04:40:07.176Z,24.87
2024-03-10T04:40:39.220Z,24.77
2024-03-10T04:41:11.404Z,24.00
2024-03-10T04:41:44.824Z,25.50
2024-03-10T04:42:16.914Z,24.70
2024-03-10T04:42:48.975Z,24.37
2024-03-10T04:43:23.644Z,24.30
2024-03-10T04:43:56.104Z,25.33
2024-03-10T04:44:28.196Z,24.60
2024-03-10T04:45:00.295Z,24.17
2024-03-10T04:45:32.394Z,24.93
2024-03-10T04:46:04.686Z,25.10
2024-03-10T04:46:37.547Z,24.87
2024-03-10T04:47:09.666Z,23.93
2024-03-10T04:47:41.892Z,25.20
2024-03-10T04:48:14.065Z,24.00
2024-03-10T04:48:46.282Z,25.20
2024-03-10T04:49:18.326Z,25.50
2024-03-10T04:49:50.411Z,24.37
2024-03-10T04:50:22.576Z,25.30
2024-03-10T04:50:54.821Z,25.13
2024-03-10T04:51:26.961Z,25.13
2024-03-10T04:51:59.146Z,24.80
2024-03-10T04:52:31.306Z,23.70
2024-03-10T04:53:03.556Z,24.93
2024-03-10T04:53:35.660Z,24.63
2024-03-10T04:54:07.679Z,24.10
2024-03-10T04:54:39.709Z,25.20
2024-03-10T04:55:11.731Z,23.87
2024-03-10T04:55:43.712Z,25.00
2024-03-10T04:56:15.759Z,24.53
2024-03-10T04:56:49.304Z,25.30
2024-03-10T04:57:22.935Z,25.93
2024-03-10T04:57:57.049Z,24.23
2024-03-10T04:58:30.065Z,23.93
2024-03-10T04:59:02.300Z,23.77
2024-03-10T04:59:36.191Z,23.30
2024-03-10T05:00:10.271Z,24.67
2024-03-10T05:00:42.518Z,24.90
2024-03-10T05:01:18.068Z,24.83
2024-03-10T05:01:53.034Z,24.53
2024-03-10T05:02:26.774Z,24.77
2024-03-10T05:02:58.918Z,24.47
2024-03-10T05:03:31.033Z,24.47
2024-03-10T05:04:03.122Z,24.03
2024-03-10T05:04:35.734Z,25.07
2024-03-10T05:05:09.190Z,24.77
2024-03-10T05:05:41.812Z,24.17
2024-03-10T05:06:14.814Z,23.60
2024-03-10T05:06:46.891Z,25.20
2024-03-10T05:07:18.942Z,25.03
2024-03-10T05:07:51.026Z,24.73
2024-03-10T05:08:23.114Z,23.87
2024-03-10T05:08:55.497Z,23.80
2024-03-10T05:09:27.513Z,24.83
2024-03-10T05:10:00.270Z,23.83
2024-03-10T05:10:32.489Z,25.23
2024-03-10T05:11:04.801Z,25.10
2024-03-10T05:11:37.335Z,25.80
2024-03-10T05:12:11.281Z,25.73
2024-03-10T05:12:43.377Z,25.23
2024-03-10T05:13:15.409Z,25.30
2024-03-10T05:13:47.690Z,25.20
2024-03-10T05:14:19.778Z,25.03
2024-03-10T05:14:51.838Z,25.03
2024-03-10T05:15:24.656Z,24.80
2024-03-10T05:15:56.666Z,24.23
2024-03-10T05:16:28.718Z,25.33
2024-03-10T05:17:01.072Z,25.83
2024-03-10T05:17:33.347Z,25.73
2024-03-10T05:18:05.910Z,24.87
2024-03-10T05:18:38.082Z,25.63
2024-03-10T05:19:10.977Z,25.33
2024-03-10T05:19:43.163Z,26.17
2024-03-10T05:20:16.659Z,26.43
2024-03-10T05:20:48.840Z,26.70
2024-03-10T05:21:20.976Z,26.07
2024-03-10T05:21:53.040Z,26.10
2024-03-10T05:22:25.088Z,26.37
2024-03-10T05:22:57.147Z,26.00
2024-03-10T05:23:29.334Z,26.40
2024-03-10T05:24:01.711Z,26.53
2024-03-10T05:24:33.692Z,26.03
2024-03-10T05:25:06.591Z,25.37
2024-03-10T05:25:38.636Z,25.20
2024-03-10T05:26:10.655Z,27.03
2024-03-10T05:26:42.644Z,25.97
2024-03-10T05:27:16.028Z,27.37
2024-03-10T05:27:48.047Z,27.03
2024-03-10T05:28:20.065Z,27.17
2024-03-10T05:28:52.239Z,26.90
2024-03-10T05:29:24.304Z,27.70
2024-03-10T05:29:56.434Z,27.07
2024-03-10T05:30:28.428Z,27.03
2024-03-10T05:31:00.457Z,27.23
2024-03-10T05:31:33.899Z,27.27
2024-03-10T05:32:06.247Z,27.10
2024-03-10T05:32:38.457Z,25.93
2024-03-10T05:33:10.576Z,25.53
2024-03-10T05:33:42.572Z,25.10
2024-03-10T05:34:14.572Z,25.67
2024-03-10T05:34:46.703Z,27.40
2024-03-10T05:35:18.971Z,27.33
2024-03-10T05:35:51.068Z,26.37
2024-03-10T05:36:23.089Z,25.20
2024-03-10T05:36:55.118Z,26.97
2024-03-10T05:37:27.138Z,28.03
2024-03-10T05:37:59.162Z,27.07
2024-03-10T05:38:31.305Z,27.30
2024-03-10T05:39:04.102Z,27.00
2024-03-10T05:39:36.166Z,27.87
2024-03-10T05:40:09.248Z,28.57
2024-03-10T05:40:41.283Z,27.73
2024-03-10T05:41:13.348Z,28.40
2024-03-10T05:41:45.430Z,27.20
2024-03-10T05:42:18.786Z,26.47
2024-03-10T05:42:50.787Z,26.67
2024-03-10T05:43:22.767Z,27.13
2024-03-10T05:43:54.844Z,27.10
2024-03-10T05:44:26.954Z,28.23
2024-03-10T05:44:59.048Z,26.67
2024-03-10T05:45:31.030Z,27.57
2024-03-10T05:46:03.109Z,27.80
2024-03-10T05:46:35.091Z,26.67
2024-03-10T05:47:07.382Z,27.77
2024-03-10T05:47:39.477Z,27.53
2024-03-10T05:48:11.540Z,28.50
2024-03-10T05:48:43.977Z,28.53
2024-03-10T05:49:16.052Z,29.13
2024-03-10T05:49:48.101Z,27.13
2024-03-10T05:50:20.238Z,28.43
2024-03-10T05:50:52.264Z,27.87
2024-03-10T05:51:24.295Z,28.03
2024-03-10T05:51:56.380Z,28.33
2024-03-10T05:52:28.476Z,28.90
2024-03-10T05:53:00.636Z,28.37
2024-03-10T05:53:32.707Z,28.67
2024-03-10T05:54:04.952Z,28.03
2024-03-10T05:54:36.977Z,26.73
2024-03-10T05:55:09.432Z,26.63
2024-03-10T05:55:41.473Z,27.83
2024-03-10T05:56:13.941Z,28.23
2024-03-10T05:56:46.044Z,28.90
2024-03-10T05:57:19.441Z,28.43
2024-03-10T05:57:51.462Z,27.77
2024-03-10T05:58:23.528Z,28.20
2024-03-10T05:58:55.595Z,27.40
2024-03-10T05:59:27.694Z,27.00
2024-03-10T06:00:00.516Z,27.40
2024-03-10T06:00:32.722Z,28.20
2024-03-10T06:01:05.072Z,29.90
2024-03-10T06:01:37.121Z,29.23
2024-03-10T06:02:09.293Z,29.10
2024-03-10T06:02:41.424Z,28.63
2024-03-10T06:03:13.455Z,28.33
2024-03-10T06:03:45.454Z,28.77
2024-03-10T06:04:17.484Z,28.63
2024-03-10T06:04:49.531Z,28.30
2024-03-10T06:05:21.608Z,28.13
2024-03-10T06:05:54.361Z,27.60
2024-03-10T06:06:26.909Z,27.70
2024-03-10T06:06:58.912Z,28.57
2024-03-10T06:07:31.007Z,28.70
2024-03-10T06:08:03.220Z,28.00
2024-03-10T06:08:35.291Z,28.60
2024-03-10T06:09:07.393Z,29.43
2024-03-10T06:09:39.433Z,29.80
2024-03-10T06:10:11.943Z,29.77
2024-03-10T06:10:44.043Z,28.57
2024-03-10T06:11:16.272Z,28.73
2024-03-10T06:11:48.561Z,28.97
2024-03-10T06:12:22.035Z,28.87
2024-03-10T06:12:54.113Z,28.17
2024-03-10T06:13:26.128Z,27.57
2024-03-10T06:13:58.136Z,28.60
2024-03-10T06:14:30.323Z,29.37
2024-03-10T06:15:05.681Z,28.20
2024-03-10T06:15:37.693Z,28.10
2024-03-10T06:16:09.735Z,28.73
2024-03-10T06:16:41.943Z,28.30
2024-03-10T06:17:13.978Z,28.50
2024-03-10T06:17:46.064Z,27.77
2024-03-10T06:18:18.114Z,28.93
2024-03-10T06:18:50.170Z,28.27
2024-03-10T06:19:22.229Z,28.77
2024-03-10T06:19:54.290Z,28.57
2024-03-10T06:20:26.475Z,29.97
2024-03-10T06:20:58.737Z,30.40
2024-03-10T06:21:30.743Z,30.37
2024-03-10T06:22:02.799Z,28.70
2024-03-10T06:22:34.835Z,29.83
2024-03-10T06:23:06.903Z,27.43
2024-03-10T06:23:39.016Z,27.80
2024-03-10T06:24:11.653Z,28.83
2024-03-10T06:24:43.684Z,28.47
2024-03-10T06:25:15.726Z,29.10
2024-03-10T06:25:47.775Z,29.80
2024-03-10T06:26:21.166Z,28.87
2024-03-10T06:26:53.305Z,28.93
2024-03-10T06:27:26.662Z,28.80
2024-03-10T06:27:58.735Z,29.17
2024-03-10T06:28:30.733Z,28.37
2024-03-10T06:29:02.814Z,28.10
2024-03-10T06:29:34.906Z,28.70
2024-03-10T06:30:07.977Z,29.47
2024-03-10T06:30:40.068Z,29.83
2024-03-10T06:31:12.055Z,29.77
2024-03-10T06:31:44.020Z,28.83
2024-03-10T06:32:16.217Z,29.37
2024-03-10T06:32:48.567Z,28.60
2024-03-10T06:33:20.681Z,27.63
2024-03-10T06:33:52.765Z,28.53
2024-03-10T06:34:24.900Z,27.70
2024-03-10T06:34:57.026Z,28.63
2024-03-10T06:35:29.363Z,29.57
2024-03-10T06:36:01.441Z,29.07
2024-03-10T06:36:33.458Z,27.77
2024-03-10T06:37:05.666Z,29.47
2024-03-10T06:37:37.753Z,29.10
2024-03-10T06:38:09.789Z,27.93
2024-03-10T06:38:43.716Z,28.50
2024-03-10T06:39:15.768Z,28.23
2024-03-10T06:39:47.841Z,28.70
2024-03-10T06:40:19.995Z,29.07
2024-03-10T06:40:52.000Z,28.73
2024-03-10T06:41:24.129Z,28.80
2024-03-10T06:41:56.143Z,28.47
2024-03-10T06:42:29.501Z,29.03
2024-03-10T06:43:01.593Z,29.33
2024-03-10T06:43:33.649Z,29.63
2024-03-10T06:44:05.722Z,30.20
2024-03-10T06:44:37.774Z,30.00
2024-03-10T06:45:10.151Z,30.20
2024-03-10T06:45:42.140Z,30.40
2024-03-10T06:46:14.149Z,29.70
2024-03-10T06:46:46.322Z,29.63
2024-03-10T06:47:18.410Z,28.10
2024-03-10T06:47:50.444Z,28.73
2024-03-10T06:48:22.598Z,28.37
2024-03-10T06:48:54.804Z,28.93
2024-03-10T06:49:26.862Z,28.10
2024-03-10T06:49:59.026Z,29.33
2024-03-10T06:50:31.128Z,30.30
2024-03-10T06:51:03.286Z,30.30
2024-03-10T06:51:35.290Z,28.87
2024-03-10T06:52:07.308Z,29.70
2024-03-10T06:52:39.465Z,29.80
2024-03-10T06:53:11.586Z,29.87
2024-03-10T06:53:43.688Z,30.47
2024-03-10T06:54:15.795Z,31.23
2024-03-10T06:54:48.050Z,31.37
2024-03-10T06:55:20.115Z,29.77
2024-03-10T06:55:52.147Z,29.20
2024-03-10T06:56:24.220Z,29.10
2024-03-10T06:56:56.247Z,30.20